createdAt,value
2022-10-09T00:01:32.637Z,89.23
2022-10-09T00:03:59.896Z,88.96
2022-10-09T00:06:32.452Z,89.01
2022-10-09T00:09:00.550Z,89.01
2022-10-09T00:11:28.936Z,89.13
2022-10-09T00:13:56.750Z,89.23
2022-10-09T00:16:24.542Z,89.49
2022-10-09T00:18:52.392Z,89.45
2022-10-09T00:21:23.138Z,89.61
2022-10-09T00:23:51.101Z,89.71
2022-10-09T00:26:18.601Z,89.52
2022-10-09T00:28:46.282Z,89.68
2022-10-09T00:31:14.015Z,89.57
2022-10-09T00:33:40.508Z,89.76
2022-10-09T00:36:10.257Z,89.74
2022-10-09T00:38:36.850Z,89.94
2022-10-09T00:41:04.271Z,90.20
2022-10-09T00:43:41.558Z,90.29
2022-10-09T00:46:17.812Z,90.26
2022-10-09T00:48:44.444Z,90.21
2022-10-09T00:51:10.872Z,90.30
2022-10-09T00:53:37.366Z,90.21
2022-10-09T00:56:04.145Z,90.15
2022-10-09T00:58:30.589Z,90.17
2022-10-09T01:00:57.138Z,90.62
2022-10-09T01:03:23.550Z,90.85
2022-10-09T01:06:14.318Z,90.89
2022-10-09T01:09:01.547Z,90.81
2022-10-09T01:11:34.056Z,90.99
2022-10-09T01:14:09.614Z,91.00
2022-10-09T01:16:41.422Z,91.02
2022-10-09T01:19:29.511Z,91.16
2022-10-09T01:22:13.572Z,91.35
2022-10-09T01:24:54.385Z,91.78
2022-10-09T01:27:25.993Z,92.06
2022-10-09T01:29:56.921Z,92.31
2022-10-09T01:32:28.292Z,92.88
2022-10-09T01:34:56.081Z,92.91
2022-10-09T01:37:23.616Z,92.78
2022-10-09T01:39:51.396Z,92.99
2022-10-09T01:42:20.437Z,93.15
2022-10-09T01:44:46.925Z,93.12
2022-10-09T01:47:16.736Z,93.32
2022-10-09T01:49:52.751Z,93.06
2022-10-09T01:52:24.595Z,93.25
2022-10-09T01:55:02.727Z,93.20
2022-10-09T01:57:44.887Z,93.06
2022-10-09T02:00:13.786Z,93.09
2022-10-09T02:02:42.737Z,93.00
2022-10-09T02:05:12.597Z,93.01
2022-10-09T02:07:39.263Z,93.33
2022-10-09T02:10:08.201Z,93.23
2022-10-09T02:12:38.980Z,93.21
2022-10-09T02:15:06.368Z,93.27
2022-10-09T02:17:36.818Z,93.48
2022-10-09T02:20:12.217Z,93.96
2022-10-09T02:22:38.655Z,93.86
2022-10-09T02:25:06.621Z,93.90
2022-10-09T02:27:33.929Z,93.76
2022-10-09T02:30:01.194Z,93.87
2022-10-09T02:32:28.805Z,93.93
2022-10-09T02:34:55.277Z,93.92
2022-10-09T02:37:21.664Z,93.72
2022-10-09T02:39:49.306Z,93.72
2022-10-09T02:42:15.993Z,93.76
2022-10-09T02:44:42.559Z,93.69
2022-10-09T02:47:09.083Z,93.76
2022-10-09T02:49:35.497Z,93.66
2022-10-09T02:52:01.924Z,93.86
2022-10-09T02:54:28.334Z,93.77
2022-10-09T02:56:54.798Z,93.82
2022-10-09T02:59:21.244Z,93.90
2022-10-09T03:02:08.417Z,94.26
2022-10-09T03:04:34.892Z,94.70
2022-10-09T03:07:01.263Z,94.79
2022-10-09T03:09:33.396Z,94.83
2022-10-09T03:12:00.204Z,94.87
2022-10-09T03:14:26.602Z,94.98
2022-10-09T03:16:52.973Z,95.33
2022-10-09T03:19:19.345Z,95.26
2022-10-09T03:21:45.742Z,95.41
2022-10-09T03:24:12.373Z,95.62
2022-10-09T03:26:38.887Z,95.81
2022-10-09T03:29:05.271Z,95.83
2022-10-09T03:31:52.028Z,95.57
2022-10-09T03:34:18.038Z,95.46
2022-10-09T03:36:44.458Z,95.47
2022-10-09T03:39:10.853Z,95.29
2022-10-09T03:41:37.239Z,95.30
2022-10-09T03:44:03.724Z,95.28
2022-10-09T03:46:30.232Z,95.45
2022-10-09T03:48:56.697Z,95.60
2022-10-09T03:51:23.124Z,95.43
2022-10-09T03:53:49.705Z,95.66
2022-10-09T03:56:16.064Z,96.16
2022-10-09T03:58:42.501Z,96.03
2022-10-09T04:01:09.125Z,96.38
2022-10-09T04:03:35.639Z,96.38
2022-10-09T04:06:02.040Z,96.16
2022-10-09T04:08:28.450Z,96.42
2022-10-09T04:13:30.008Z,96.48
2022-10-09T04:15:56.679Z,96.32
2022-10-09T04:18:23.487Z,96.39
2022-10-09T04:20:51.361Z,96.33
2022-10-09T04:23:19.267Z,96.12
2022-10-09T04:25:45.912Z,95.91
2022-10-09T04:28:12.804Z,95.91
2022-10-09T04:30:39.728Z,95.92
2022-10-09T04:33:11.825Z,96.18
2022-10-09T04:35:46.654Z,95.89
2022-10-09T04:38:13.030Z,95.82
2022-10-09T04:40:39.456Z,95.67
2022-10-09T04:43:06.264Z,95.77
2022-10-09T04:45:33.024Z,96.04
2022-10-09T04:47:59.644Z,96.00
2022-10-09T04:50:26.007Z,96.02
2022-10-09T04:52:52.441Z,96.05
2022-10-09T04:55:18.889Z,95.95
2022-10-09T04:57:45.373Z,96.19
2022-10-09T05:00:12.735Z,96.03
2022-10-09T05:02:39.316Z,96.00
2022-10-09T05:05:05.963Z,96.11
2022-10-09T05:07:32.374Z,96.21
2022-10-09T05:09:58.766Z,96.26
2022-10-09T05:12:25.149Z,96.21
2022-10-09T05:14:54.274Z,96.49
2022-10-09T05:17:23.270Z,96.72
2022-10-09T05:19:50.110Z,96.72
2022-10-09T05:22:16.493Z,96.71
2022-10-09T05:24:42.859Z,96.64
2022-10-09T05:27:09.254Z,96.55
2022-10-09T05:29:36.051Z,96.41
2022-10-09T05:32:02.981Z,96.16
2022-10-09T05:34:29.392Z,96.21
2022-10-09T05:36:55.789Z,96.29
2022-10-09T05:39:22.402Z,96.27
2022-10-09T05:41:48.805Z,96.25
2022-10-09T05:44:15.216Z,96.35
2022-10-09T05:46:41.643Z,96.39
2022-10-09T05:49:10.367Z,96.27
2022-10-09T05:51:38.922Z,96.21
2022-10-09T05:54:06.728Z,96.37
2022-10-09T05:56:35.918Z,96.34
2022-10-09T05:59:07.972Z,96.79
2022-10-09T06:01:37.517Z,96.93
2022-10-09T06:04:05.070Z,96.80
2022-10-09T06:06:33.664Z,97.04
2022-10-09T06:09:00.073Z,96.69
2022-10-09T06:11:31.560Z,97.04
2022-10-09T06:14:00.029Z,97.13
2022-10-09T06:16:29.151Z,96.93
2022-10-09T06:18:56.209Z,97.01
2022-10-09T06:21:23.639Z,96.52
2022-10-09T06:23:54.321Z,96.22
2022-10-09T06:26:21.679Z,96.40
2022-10-09T06:28:48.579Z,96.72
2022-10-09T06:31:21.298Z,96.76
2022-10-09T06:33:49.472Z,96.59
2022-10-09T06:36:18.595Z,96.45
2022-10-09T06:38:45.614Z,96.51
2022-10-09T06:41:21.538Z,96.16
2022-10-09T06:43:51.807Z,96.42
2022-10-09T06:46:20.253Z,95.70
2022-10-09T06:48:47.101Z,95.79
2022-10-09T06:51:19.212Z,95.34
2022-10-09T06:53:51.690Z,95.49
2022-10-09T06:56:20.025Z,95.28
2022-10-09T06:58:47.004Z,94.51
2022-10-09T07:01:24.256Z,94.13
2022-10-09T07:04:14.830Z,93.48
2022-10-09T07:06:47.613Z,93.38
2022-10-09T07:09:16.337Z,93.08
2022-10-09T07:11:45.659Z,93.03
2022-10-09T07:14:15.838Z,92.55
2022-10-09T07:16:45.735Z,92.90
2022-10-09T07:19:15.435Z,92.78
2022-10-09T07:21:57.049Z,92.15
2022-10-09T07:24:27.727Z,91.74
2022-10-09T07:27:05.517Z,91.71
2022-10-09T07:29:31.906Z,91.32
2022-10-09T07:31:58.306Z,90.90
2022-10-09T07:34:24.908Z,90.37
2022-10-09T07:36:51.432Z,90.02
2022-10-09T07:39:20.767Z,90.08
2022-10-09T07:41:49.980Z,89.73
2022-10-09T07:44:16.476Z,89.68
2022-10-09T07:46:43.413Z,89.56
2022-10-09T07:49:10.062Z,89.53
2022-10-09T07:51:39.488Z,89.25
2022-10-09T07:54:06.011Z,88.71
2022-10-09T07:56:34.990Z,88.21
2022-10-09T07:59:04.228Z,87.76
2022-10-09T08:01:32.028Z,87.68
2022-10-09T08:03:59.072Z,87.54
2022-10-09T08:06:26.392Z,86.67
2022-10-09T08:08:54.637Z,86.11
2022-10-09T08:11:23.717Z,86.24
2022-10-09T08:13:51.092Z,86.11
2022-10-09T08:16:19.315Z,85.48
2022-10-09T08:18:49.073Z,85.66
2022-10-09T08:21:18.190Z,85.66
2022-10-09T08:23:45.516Z,85.50
2022-10-09T08:26:17.362Z,85.19
2022-10-09T08:28:44.005Z,84.68
2022-10-09T08:31:15.314Z,85.13
2022-10-09T08:33:42.571Z,85.20
2022-10-09T08:36:11.809Z,84.06
2022-10-09T08:38:47.270Z,82.89
2022-10-09T08:41:23.300Z,82.33
2022-10-09T08:44:12.208Z,81.39
2022-10-09T08:47:06.573Z,80.89
2022-10-09T08:49:40.592Z,81.37
2022-10-09T08:52:33.215Z,80.61
2022-10-09T08:55:06.322Z,80.13
2022-10-09T08:57:34.398Z,79.60
2022-10-09T09:00:00.756Z,79.57
2022-10-09T09:03:01.140Z,78.56
2022-10-09T09:05:43.993Z,77.97
2022-10-09T09:08:42.169Z,77.33
2022-10-09T09:11:33.407Z,76.77
2022-10-09T09:14:28.128Z,75.88
2022-10-09T09:17:26.819Z,75.33
2022-10-09T09:20:16.257Z,74.90
2022-10-09T09:22:48.808Z,75.61
2022-10-09T09:25:28.627Z,75.19
2022-10-09T09:28:00.303Z,74.99
2022-10-09T09:30:42.964Z,74.11
2022-10-09T09:33:44.384Z,74.23
2022-10-09T09:36:20.674Z,73.21
2022-10-09T09:39:26.014Z,73.06
2022-10-09T09:41:35.380Z,71.52
2022-10-09T09:44:01.739Z,71.16
2022-10-09T09:46:30.441Z,71.83
2022-10-09T09:48:56.846Z,71.98
2022-10-09T09:51:30.041Z,71.73
2022-10-09T09:54:04.343Z,71.56
2022-10-09T09:56:59.881Z,69.83
2022-10-09T09:59:37.768Z,70.22
2022-10-09T10:02:26.218Z,70.65
2022-10-09T10:04:54.284Z,68.18
2022-10-09T10:07:32.543Z,68.17
2022-10-09T10:10:24.960Z,67.27
2022-10-09T10:12:52.476Z,68.24
2022-10-09T10:15:30.953Z,68.45
2022-10-09T10:18:05.030Z,67.13
2022-10-09T10:20:41.328Z,66.85
2022-10-09T10:23:34.852Z,65.84
2022-10-09T10:26:39.725Z,66.53
2022-10-09T10:29:25.595Z,65.51
2022-10-09T10:32:37.170Z,63.21
2022-10-09T10:35:14.640Z,62.58
2022-10-09T10:37:50.072Z,63.03
2022-10-09T10:40:22.339Z,63.54
2022-10-09T10:43:03.931Z,62.72
2022-10-09T10:45:52.436Z,60.44
2022-10-09T10:48:26.286Z,60.45
2022-10-09T10:51:27.961Z,60.58
2022-10-09T10:54:16.319Z,61.26
2022-10-09T10:56:48.680Z,60.41
2022-10-09T10:59:49.397Z,61.09
2022-10-09T11:02:48.904Z,60.04
2022-10-09T11:05:27.471Z,59.55
2022-10-09T11:08:09.990Z,58.48
2022-10-09T11:10:59.357Z,56.84
2022-10-09T11:13:29.623Z,56.72
2022-10-09T11:16:11.314Z,57.33
2022-10-09T11:19:03.526Z,57.17
2022-10-09T11:21:51.185Z,56.76
2022-10-09T11:24:47.584Z,55.16
2022-10-09T11:27:29.838Z,56.74
2022-10-09T11:30:00.708Z,53.39
2022-10-09T11:32:27.168Z,51.96
2022-10-09T11:35:20.514Z,51.20
2022-10-09T11:37:56.192Z,51.98
2022-10-09T11:40:49.248Z,52.11
2022-10-09T11:43:24.712Z,50.13
2022-10-09T11:46:12.545Z,49.10
2022-10-09T11:49:00.705Z,48.78
2022-10-09T11:51:38.131Z,46.00
2022-10-09T11:54:06.320Z,44.51
2022-10-09T11:56:32.788Z,44.80
2022-10-09T11:59:05.554Z,44.02
2022-10-09T12:01:37.872Z,44.04
2022-10-09T12:04:50.169Z,43.39
2022-10-09T12:07:25.337Z,40.27
2022-10-09T12:09:59.730Z,38.21
2022-10-09T12:12:26.460Z,36.78
2022-10-09T12:14:53.438Z,34.55
2022-10-09T12:17:22.889Z,34.26
2022-10-09T12:20:00.186Z,31.89
2022-10-09T12:22:33.729Z,29.49
2022-10-09T12:25:07.419Z,29.20
2022-10-09T12:27:37.942Z,28.10
2022-10-09T12:30:14.347Z,26.77
2022-10-09T12:32:47.436Z,25.93
2022-10-09T12:35:25.031Z,24.88
2022-10-09T12:37:52.311Z,23.59
2022-10-09T12:40:25.609Z,22.72
2022-10-09T12:42:53.916Z,22.76
2022-10-09T12:45:26.399Z,22.17
2022-10-09T12:47:54.268Z,22.39
2022-10-09T12:50:28.009Z,21.02
2022-10-09T12:52:58.782Z,20.64
2022-10-09T12:55:43.020Z,19.89
2022-10-09T12:58:28.498Z,19.94
2022-10-09T13:00:58.728Z,20.00
2022-10-09T13:03:36.589Z,19.45
2022-10-09T13:06:05.391Z,19.71
2022-10-09T13:08:39.033Z,20.25
2022-10-09T13:11:17.983Z,20.27
2022-10-09T13:13:49.694Z,20.04
2022-10-09T13:16:16.371Z,20.07
2022-10-09T13:18:43.392Z,20.65
2022-10-09T13:21:34.266Z,21.27
2022-10-09T13:24:09.449Z,20.13
2022-10-09T13:26:36.079Z,19.23
2022-10-09T13:29:03.633Z,19.80
2022-10-09T13:31:30.232Z,19.81
2022-10-09T13:33:56.631Z,19.49
2022-10-09T13:36:23.001Z,19.10
2022-10-09T13:38:49.408Z,18.80
2022-10-09T13:41:23.398Z,19.34
2022-10-09T13:43:51.376Z,19.53
2022-10-09T13:46:17.824Z,19.47
2022-10-09T13:48:44.628Z,19.25
2022-10-09T13:51:11.728Z,19.09
2022-10-09T13:53:38.306Z,18.62
2022-10-09T13:56:07.639Z,18.40
2022-10-09T13:58:34.075Z,18.51
2022-10-09T14:01:00.511Z,18.45
2022-10-09T14:03:27.053Z,18.38
2022-10-09T14:06:01.489Z,19.04
2022-10-09T14:08:27.967Z,19.06
2022-10-09T14:10:54.709Z,19.26
2022-10-09T14:13:21.769Z,19.49
2022-10-09T14:15:51.515Z,19.56
2022-10-09T14:18:17.880Z,19.82
2022-10-09T14:20:45.419Z,20.05
2022-10-09T14:23:13.324Z,20.69
2022-10-09T14:25:41.826Z,20.53
2022-10-09T14:28:08.260Z,20.43
2022-10-09T14:30:40.886Z,20.73
2022-10-09T14:33:07.277Z,20.45
2022-10-09T14:35:33.669Z,20.71
2022-10-09T14:38:00.457Z,20.18
2022-10-09T14:40:26.857Z,20.06
2022-10-09T14:42:53.305Z,19.85
2022-10-09T14:45:19.792Z,19.75
2022-10-09T14:47:46.154Z,19.49
2022-10-09T14:50:12.567Z,19.38
2022-10-09T14:52:38.948Z,19.46
2022-10-09T14:55:05.617Z,19.52
2022-10-09T14:57:35.469Z,19.88
2022-10-09T15:00:03.839Z,20.33
2022-10-09T15:02:30.665Z,20.25
2022-10-09T15:04:57.027Z,20.76
2022-10-09T15:07:23.395Z,21.14
2022-10-09T15:09:49.955Z,21.57
2022-10-09T15:12:16.310Z,21.74
2022-10-09T15:14:42.768Z,21.57
2022-10-09T15:17:09.515Z,22.02
2022-10-09T15:19:35.922Z,22.05
2022-10-09T15:22:02.306Z,22.49
2022-10-09T15:24:28.693Z,22.68
2022-10-09T15:26:55.070Z,22.70
2022-10-09T15:29:21.592Z,22.99
2022-10-09T15:31:50.704Z,23.27
2022-10-09T15:34:19.049Z,22.92
2022-10-09T15:36:46.503Z,22.86
2022-10-09T15:39:13.831Z,23.10
2022-10-09T15:41:41.951Z,23.25
2022-10-09T15:44:19.442Z,23.25
2022-10-09T15:46:47.646Z,23.35
2022-10-09T15:49:14.250Z,23.54
2022-10-09T15:51:40.986Z,23.78
2022-10-09T15:54:07.572Z,24.04
2022-10-09T15:56:38.926Z,24.19
2022-10-09T15:59:06.412Z,24.67
2022-10-09T16:01:32.892Z,24.93
2022-10-09T16:03:59.376Z,25.47
2022-10-09T16:06:25.807Z,25.73
2022-10-09T16:08:55.983Z,26.45
2022-10-09T16:11:26.439Z,26.89
2022-10-09T16:13:54.013Z,27.44
2022-10-09T16:16:23.461Z,28.69
2022-10-09T16:18:50.236Z,29.63
2022-10-09T16:21:28.792Z,30.33
2022-10-09T16:23:58.862Z,30.80
2022-10-09T16:26:28.161Z,31.35
2022-10-09T16:28:54.693Z,32.31
2022-10-09T16:31:23.631Z,33.39
2022-10-09T16:33:50.526Z,35.03
2022-10-09T16:36:17.673Z,36.40
2022-10-09T16:38:45.046Z,37.64
2022-10-09T16:41:14.958Z,38.94
2022-10-09T16:43:41.318Z,40.07
2022-10-09T16:46:17.809Z,41.43
2022-10-09T16:48:44.606Z,42.53
2022-10-09T16:51:13.815Z,43.49
2022-10-09T16:53:41.575Z,44.50
2022-10-09T16:56:15.202Z,45.51
2022-10-09T16:58:43.196Z,46.77
2022-10-09T17:01:11.268Z,47.86
2022-10-09T17:03:42.085Z,48.88
2022-10-09T17:06:13.693Z,49.89
2022-10-09T17:08:40.163Z,50.92
2022-10-09T17:11:09.120Z,52.21
2022-10-09T17:13:36.269Z,52.94
2022-10-09T17:16:17.111Z,53.80
2022-10-09T17:18:44.576Z,54.55
2022-10-09T17:21:12.519Z,55.06
2022-10-09T17:23:39.392Z,55.76
2022-10-09T17:26:14.618Z,56.35
2022-10-09T17:28:41.712Z,57.28
2022-10-09T17:31:11.230Z,57.99
2022-10-09T17:33:41.156Z,58.44
2022-10-09T17:36:11.637Z,58.92
2022-10-09T17:38:38.035Z,59.63
2022-10-09T17:41:06.321Z,60.07
2022-10-09T17:43:33.197Z,60.60
2022-10-09T17:46:01.130Z,61.09
2022-10-09T17:48:30.335Z,61.64
2022-10-09T17:50:57.880Z,62.27
2022-10-09T17:53:25.245Z,62.78
2022-10-09T17:55:57.554Z,63.78
2022-10-09T17:58:26.872Z,64.54
2022-10-09T18:00:53.289Z,65.23
2022-10-09T18:03:20.327Z,65.79
2022-10-09T18:05:49.148Z,66.32
2022-10-09T18:08:18.521Z,66.70
2022-10-09T18:10:45.712Z,67.20
2022-10-09T18:13:12.337Z,67.70
2022-10-09T18:15:40.529Z,67.93
2022-10-09T18:18:07.729Z,68.25
2022-10-09T18:20:35.140Z,68.02
2022-10-09T18:23:01.640Z,68.32
2022-10-09T18:25:28.019Z,68.38
2022-10-09T18:27:54.436Z,68.43
2022-10-09T18:30:21.110Z,68.38
2022-10-09T18:32:48.681Z,68.25
2022-10-09T18:35:15.298Z,68.04
2022-10-09T18:37:41.738Z,68.06
2022-10-09T18:40:09.047Z,67.80
2022-10-09T18:42:35.976Z,67.98
2022-10-09T18:45:03.266Z,67.98
2022-10-09T18:47:34.035Z,67.93
2022-10-09T18:50:05.739Z,68.05
2022-10-09T18:52:32.416Z,68.28
2022-10-09T18:54:59.430Z,68.38
2022-10-09T18:57:26.893Z,68.46
2022-10-09T18:59:55.876Z,68.40
2022-10-09T19:02:26.291Z,68.77
2022-10-09T19:04:54.004Z,69.10
2022-10-09T19:07:27.921Z,68.99
2022-10-09T19:09:57.292Z,69.30
2022-10-09T19:12:27.371Z,69.43
2022-10-09T19:14:54.658Z,69.65
2022-10-09T19:17:23.496Z,69.54
2022-10-09T19:20:00.453Z,69.34
2022-10-09T19:22:27.002Z,69.12
2022-10-09T19:24:53.487Z,69.39
2022-10-09T19:27:22.484Z,69.29
2022-10-09T19:29:52.161Z,69.79
2022-10-09T19:32:22.939Z,69.61
2022-10-09T19:34:50.208Z,69.47
2022-10-09T19:37:16.920Z,69.71
2022-10-09T19:39:48.250Z,69.96
2022-10-09T19:42:16.439Z,70.04
2022-10-09T19:44:46.654Z,70.67
2022-10-09T19:47:14.951Z,70.83
2022-10-09T19:49:41.779Z,71.42
2022-10-09T19:52:08.333Z,71.63
2022-10-09T19:54:36.021Z,71.61
2022-10-09T19:57:02.600Z,71.87
2022-10-09T19:59:29.975Z,71.69
2022-10-09T20:01:57.615Z,71.73
2022-10-09T20:04:24.444Z,71.64
2022-10-09T20:06:51.026Z,71.71
2022-10-09T20:09:17.529Z,71.61
2022-10-09T20:11:44.067Z,71.41
2022-10-09T20:14:10.939Z,71.43
2022-10-09T20:16:38.363Z,71.48
2022-10-09T20:19:05.306Z,71.68
2022-10-09T20:21:33.061Z,71.61
2022-10-09T20:24:01.079Z,71.49
2022-10-09T20:26:28.226Z,71.78
2022-10-09T20:28:54.976Z,71.97
2022-10-09T20:31:24.060Z,72.01
2022-10-09T20:33:51.715Z,72.15
2022-10-09T20:36:21.584Z,72.78
2022-10-09T20:38:48.626Z,72.80
2022-10-09T20:41:15.183Z,73.20
2022-10-09T20:43:41.577Z,73.14
2022-10-09T20:46:10.129Z,72.90
2022-10-09T20:48:36.931Z,73.02
2022-10-09T20:51:03.746Z,73.12
2022-10-09T20:53:30.440Z,73.16
2022-10-09T20:56:01.599Z,73.16
2022-10-09T20:58:28.739Z,73.33
2022-10-09T21:00:55.562Z,73.32
2022-10-09T21:03:22.233Z,73.46
2022-10-09T21:05:48.772Z,73.95
2022-10-09T21:08:15.615Z,73.92
2022-10-09T21:10:46.788Z,74.30
2022-10-09T21:13:13.751Z,74.09
2022-10-09T21:15:43.659Z,74.22
2022-10-09T21:18:10.953Z,74.10
2022-10-09T21:20:43.003Z,74.06
2022-10-09T21:23:11.035Z,74.02
2022-10-09T21:25:37.833Z,73.62
2022-10-09T21:28:05.804Z,74.05
2022-10-09T21:30:41.294Z,74.20
2022-10-09T21:33:08.790Z,74.11
2022-10-09T21:35:42.531Z,74.75
2022-10-09T21:38:15.241Z,74.97
2022-10-09T21:40:54.202Z,75.36
2022-10-09T21:43:20.608Z,75.48
2022-10-09T21:45:52.872Z,75.51
2022-10-09T21:48:19.638Z,75.79
2022-10-09T21:50:46.172Z,76.93
2022-10-09T21:53:13.293Z,77.09
2022-10-09T21:55:39.931Z,78.31
2022-10-09T21:58:07.495Z,78.20
2022-10-09T22:00:34.540Z,78.58
2022-10-09T22:03:01.201Z,78.81
2022-10-09T22:05:28.019Z,78.12
2022-10-09T22:07:54.600Z,77.84
2022-10-09T22:10:21.014Z,77.65
2022-10-09T22:12:47.715Z,77.62
2022-10-09T22:15:14.455Z,77.56
2022-10-09T22:17:42.491Z,77.34
2022-10-09T22:20:09.317Z,77.28
2022-10-09T22:22:35.751Z,77.29
2022-10-09T22:25:02.308Z,77.31
2022-10-09T22:27:29.030Z,77.68
2022-10-09T22:29:55.562Z,77.53
2022-10-09T22:32:22.047Z,77.44
2022-10-09T22:34:51.242Z,77.98
2022-10-09T22:37:18.246Z,78.19
2022-10-09T22:39:44.704Z,78.45
2022-10-09T22:42:11.222Z,78.90
2022-10-09T22:44:37.755Z,79.07
2022-10-09T22:47:04.236Z,79.39
2022-10-09T22:49:30.650Z,79.27
2022-10-09T22:51:57.163Z,79.05
2022-10-09T22:54:23.689Z,79.46
2022-10-09T22:56:50.096Z,79.72
2022-10-09T22:59:18.126Z,79.65
2022-10-09T23:01:56.416Z,79.85
2022-10-09T23:04:23.962Z,79.85
2022-10-09T23:06:53.671Z,79.81
2022-10-09T23:09:21.724Z,79.87
2022-10-09T23:11:48.831Z,79.66
2022-10-09T23:14:15.542Z,79.82
2022-10-09T23:16:42.962Z,79.51
2022-10-09T23:19:10.294Z,79.50
2022-10-09T23:21:39.118Z,79.42
2022-10-09T23:24:07.339Z,79.73
2022-10-09T23:26:35.573Z,79.83
2022-10-09T23:29:08.072Z,80.14
2022-10-09T23:31:35.889Z,80.08
2022-10-09T23:34:03.910Z,80.23
2022-10-09T23:36:30.658Z,80.50
2022-10-09T23:38:58.251Z,80.51
2022-10-09T23:41:27.498Z,80.94
2022-10-09T23:43:55.150Z,80.84
2022-10-09T23:46:27.611Z,81.23
2022-10-09T23:48:54.858Z,81.55
2022-10-09T23:51:23.244Z,81.84
2022-10-09T23:53:50.103Z,81.83
2022-10-09T23:56:19.544Z,82.02
2022-10-09T23:58:46.983Z,82.12
